Time;durP1;ratioP1;P1;durP2;ratioP2;P2;SDS_P1;SDS_P2;PMS_P1;PMS_P2;Temp;Humidity;BMP_temperature;BMP_pressure;BME280_temperature;BME280_humidity;BME280_pressure;Samples;Min_cycle;Max_cycle;Signal;HPM_P1;HPM_P2
2022/05/18 00:03:04;;;;;;;9.93;2.05;;;;;;;9.32;46.23;101096.64;2097893;82;21724;-78
2022/05/18 00:06:06;;;;;;;3.65;1.80;;;;;;;9.24;46.33;101100.45;2092046;83;21089;-79
2022/05/18 00:09:07;;;;;;;4.83;1.60;;;;;;;9.17;46.42;101109.89;2096772;83;21366;-78
2022/05/18 00:12:09;;;;;;;;;;;;;;;9.11;46.49;101112.58;2110066;82;21155;-78
2022/05/18 00:15:12;;;;;;;5.22;1.85;;;;;;;9.05;46.64;101116.25;2106116;82;20142;-78
2022/05/18 00:18:14;;;;;;;2.80;1.80;;;;;;;9.00;46.68;101125.07;2101363;82;21061;-78
2022/05/18 00:21:16;;;;;;;3.98;1.70;;;;;;;8.95;46.83;101121.48;2113372;82;21055;-78
2022/05/18 00:24:17;;;;;;;3.00;1.80;;;;;;;8.89;46.85;101130.79;2113778;81;21073;-76
2022/05/18 00:27:18;;;;;;;3.72;1.90;;;;;;;8.83;47.00;101123.87;2119132;82;21585;-78
2022/05/18 00:30:20;;;;;;;;;;;;;;;8.74;46.97;101133.43;2103592;83;21076;-78
2022/05/18 00:33:21;;;;;;;3.40;1.72;;;;;;;8.68;47.07;101137.92;2083922;83;20133;-78
2022/05/18 00:36:22;;;;;;;5.75;1.50;;;;;;;8.65;47.15;101139.02;2085722;83;21052;-77
2022/05/18 00:39:23;;;;;;;;;;;;;;;8.61;47.24;101140.72;2093746;83;21658;-78
2022/05/18 00:42:27;;;;;;;6.08;1.70;;;;;;;8.58;47.30;101148.91;2094925;83;20202;-78
2022/05/18 00:45:29;;;;;;;5.30;1.90;;;;;;;8.50;47.38;101154.38;2092058;83;21487;-78
2022/05/18 00:48:31;;;;;;;2.42;1.98;;;;;;;8.44;47.49;101160.64;2090720;83;21080;-77
2022/05/18 00:51:39;;;;;;;4.78;1.90;;;;;;;8.33;47.63;101161.50;2089669;83;21045;-77
2022/05/18 00:54:42;;;;;;;5.47;1.70;;;;;;;8.23;47.81;101162.75;2088368;83;21555;-78
2022/05/18 00:58:08;;;;;;;6.12;2.08;;;;;;;8.14;47.95;101167.94;2102727;82;21013;-78
2022/05/18 01:01:10;;;;;;;4.67;1.65;;;;;;;8.09;48.10;101169.66;2102825;82;21534;-77
2022/05/18 01:04:15;;;;;;;7.22;1.60;;;;;;;7.99;48.24;101173.51;2089952;83;21571;-78
2022/05/18 01:07:25;;;;;;;4.65;1.75;;;;;;;7.94;48.53;101178.81;2094369;83;21014;-78
2022/05/18 01:10:28;;;;;;;3.33;1.75;;;;;;;7.85;48.50;101173.78;2089908;83;21085;-78
2022/05/18 01:13:29;;;;;;;5.75;1.92;;;;;;;7.71;48.63;101173.56;2090470;83;21079;-77
2022/05/18 01:16:30;;;;;;;4.72;1.57;;;;;;;7.58;48.92;101171.08;2085145;84;21072;-77
2022/05/18 01:19:50;;;;;;;2.35;1.40;;;;;;;7.48;49.23;101178.03;2083551;83;21522;-77
2022/05/18 01:23:21;;;;;;;1.42;1.32;;;;;;;7.43;49.18;101181.52;2087870;83;21111;-77
2022/05/18 01:26:44;;;;;;;;;;;;;;;7.37;49.29;101183.32;2082699;83;21158;-78
2022/05/18 01:29:45;;;;;;;4.25;2.30;;;;;;;7.24;49.46;101186.09;2095161;83;20160;-78
2022/05/18 01:32:51;;;;;;;4.95;1.77;;;;;;;7.18;49.60;101193.17;2088507;83;21009;-78
2022/05/18 01:35:53;;;;;;;3.58;1.80;;;;;;;7.15;49.62;101195.56;2101025;83;21003;-79
2022/05/18 01:38:54;;;;;;;3.17;1.90;;;;;;;7.10;49.69;101196.39;2095983;83;21094;-79
2022/05/18 01:42:09;;;;;;;8.88;1.90;;;;;;;7.06;49.83;101202.84;2090653;83;22392;-78
2022/05/18 01:45:11;;;;;;;4.08;1.77;;;;;;;7.04;49.99;101195.55;2087337;83;21150;-76
2022/05/18 01:48:16;;;;;;;5.15;1.90;;;;;;;7.04;50.07;101206.55;2106818;82;21078;-78
2022/05/18 01:51:38;;;;;;;11.43;1.82;;;;;;;6.99;50.11;101208.73;2109673;82;21116;-78
2022/05/18 01:54:44;;;;;;;2.55;1.80;;;;;;;6.90;50.31;101211.11;2105556;82;21022;-77
2022/05/18 01:57:45;;;;;;;5.42;1.82;;;;;;;6.87;50.65;101213.98;2111259;82;21059;-78
2022/05/18 02:00:47;;;;;;;5.85;1.98;;;;;;;6.87;50.71;101219.72;2105528;82;21577;-76
2022/05/18 02:03:49;;;;;;;7.75;2.40;;;;;;;6.81;50.72;101220.19;2096188;83;21057;-77
2022/05/18 02:06:50;;;;;;;5.55;2.47;;;;;;;6.77;50.73;101230.13;2099415;82;21096;-77
2022/05/18 02:09:51;;;;;;;2.52;2.05;;;;;;;6.73;50.81;101228.70;2106716;82;21211;-78
2022/05/18 02:12:53;;;;;;;;;;;;;;;6.70;50.89;101236.36;2103163;82;21098;-78
2022/05/18 02:15:54;;;;;;;3.25;1.90;;;;;;;6.64;51.01;101239.42;2097823;83;20205;-77
2022/05/18 02:18:55;;;;;;;;;;;;;;;6.54;51.12;101241.08;2102864;82;21752;-77
2022/05/18 02:21:56;;;;;;;2.85;1.92;;;;;;;6.47;51.22;101247.74;2084911;83;20196;-78
2022/05/18 02:24:57;;;;;;;2.85;1.85;;;;;;;6.41;51.37;101243.77;2128422;81;21080;-78
2022/05/18 02:27:58;;;;;;;;;;;;;;;6.40;51.59;101249.16;2081217;83;21106;-77
2022/05/18 02:30:59;;;;;;;3.02;1.92;;;;;;;6.40;51.70;101255.75;2088620;82;20426;-77
2022/05/18 02:34:00;;;;;;;;;;;;;;;6.33;51.48;101257.97;2112607;82;21056;-77
2022/05/18 02:37:02;;;;;;;4.10;1.95;;;;;;;6.32;51.68;101263.38;2106469;82;20189;-78
2022/05/18 02:40:06;;;;;;;3.45;1.90;;;;;;;6.29;51.65;101266.59;2099362;82;21081;-78
2022/05/18 02:43:07;;;;;;;4.03;2.17;;;;;;;6.30;51.75;101272.70;2108655;82;21046;-78
2022/05/18 02:46:18;;;;;;;2.58;1.80;;;;;;;6.20;51.86;101274.34;2105596;82;21012;-77
2022/05/18 02:49:19;;;;;;;4.53;2.10;;;;;;;6.13;52.02;101280.50;2109366;82;21146;-78
2022/05/18 02:52:20;;;;;;;;;;;;;;;6.05;52.11;101285.02;2103318;82;21606;-78
2022/05/18 02:58:50;;;;;;;3.30;1.87;;;;;;;5.93;52.38;101292.45;2107990;82;21127;-78
2022/05/18 03:01:52;;;;;;;2.20;1.82;;;;;;;5.85;52.55;101307.44;2115664;82;21013;-78
2022/05/18 03:04:53;;;;;;;3.75;2.15;;;;;;;5.76;52.70;101301.51;2104724;82;21103;-77
2022/05/18 03:07:54;;;;;;;;;;;;;;;5.71;52.84;101298.34;2120118;82;21044;-78
2022/05/18 03:10:55;;;;;;;5.20;2.05;;;;;;;5.69;53.03;101305.98;2110137;82;20986;-78
2022/05/18 03:13:57;;;;;;;5.05;2.20;;;;;;;5.57;53.20;101306.36;2108669;82;21090;-76
2022/05/18 03:16:59;;;;;;;2.75;1.92;;;;;;;5.48;53.65;101313.09;2110923;82;21094;-78
2022/05/18 03:20:00;;;;;;;6.28;2.08;;;;;;;5.42;53.74;101312.69;2109562;82;21043;-77
2022/05/18 03:26:24;;;;;;;4.12;2.15;;;;;;;5.53;53.91;101335.17;2106831;82;21074;-76
2022/05/18 03:29:25;;;;;;;6.53;2.12;;;;;;;5.69;54.14;101335.82;2102222;82;21108;-78
2022/05/18 03:32:26;;;;;;;5.37;2.20;;;;;;;6.03;54.40;101334.83;2107241;82;21087;-77
2022/05/18 03:35:27;;;;;;;4.25;2.20;;;;;;;6.46;54.26;101338.36;2109470;82;21034;-77
2022/05/18 03:38:29;;;;;;;;;;;;;;;6.73;53.91;101343.44;2108061;82;21214;-78
2022/05/18 03:41:30;;;;;;;;;;;;;;;7.15;53.88;101338.10;2113180;82;20205;-78
2022/05/18 03:44:31;;;;;;;6.90;2.60;;;;;;;7.59;53.67;101341.80;2107726;82;20484;-77
2022/05/18 03:47:32;;;;;;;3.90;2.20;;;;;;;8.00;53.06;101346.17;2106393;82;21697;-78
2022/05/18 03:50:33;;;;;;;;;;;;;;;8.55;52.81;101344.94;2111917;82;21680;-77
2022/05/18 03:53:35;;;;;;;5.72;2.67;;;;;;;9.10;52.54;101346.56;2099501;82;20402;-77
2022/05/18 03:56:36;;;;;;;6.85;2.20;;;;;;;9.56;51.97;101349.31;2104129;82;21659;-77
2022/05/18 03:59:39;;;;;;;8.33;2.20;;;;;;;10.07;51.48;101349.78;2107789;82;21014;-77
2022/05/18 04:02:40;;;;;;;10.15;2.75;;;;;;;10.55;50.99;101353.59;2117836;82;21072;-77
2022/05/18 04:05:42;;;;;;;7.12;2.52;;;;;;;11.03;50.58;101359.45;2115709;82;21488;-78
2022/05/18 04:08:43;;;;;;;3.27;2.30;;;;;;;11.49;49.72;101361.89;2109808;82;21128;-77
2022/05/18 04:11:44;;;;;;;4.92;2.50;;;;;;;11.90;48.52;101366.49;2107044;82;21468;-77
2022/05/18 04:14:45;;;;;;;6.90;2.50;;;;;;;11.98;48.16;101369.27;2079577;83;21074;-77
2022/05/18 04:17:48;;;;;;;5.33;2.15;;;;;;;12.30;47.62;101372.00;2101632;82;21106;-77
2022/05/18 04:20:53;;;;;;;4.85;2.80;;;;;;;12.39;47.06;101371.14;2126159;82;21544;-77
2022/05/18 04:23:55;;;;;;;5.20;2.58;;;;;;;12.74;46.74;101366.36;2109724;82;21068;-76
2022/05/18 04:26:57;;;;;;;4.42;2.50;;;;;;;12.94;46.28;101369.72;2104644;82;21032;-76
2022/05/18 04:29:58;;;;;;;5.83;2.40;;;;;;;13.21;45.96;101375.97;2117885;82;21947;-74
2022/05/18 04:33:00;;;;;;;4.65;2.37;;;;;;;13.61;45.80;101376.81;2112880;82;21044;-76
2022/05/18 04:36:02;;;;;;;7.37;2.62;;;;;;;14.22;45.28;101375.48;2113667;82;21503;-81
2022/05/18 04:39:03;;;;;;;4.15;2.50;;;;;;;14.66;44.63;101373.52;2112874;82;21036;-79
2022/05/18 04:42:05;;;;;;;6.78;2.60;;;;;;;15.08;44.05;101379.78;2113669;82;21105;-80
2022/05/18 04:45:10;;;;;;;3.83;2.27;;;;;;;15.31;43.16;101376.77;2114221;82;21488;-78
2022/05/18 04:48:17;;;;;;;6.50;2.87;;;;;;;14.98;41.48;101384.78;2106942;82;20987;-78
2022/05/18 04:51:18;;;;;;;5.92;2.60;;;;;;;14.54;41.39;101382.33;2115614;82;21066;-76
2022/05/18 04:54:19;;;;;;;2.45;2.20;;;;;;;14.37;42.09;101387.75;2108998;82;21041;-76
2022/05/18 04:57:22;;;;;;;3.90;2.10;;;;;;;14.54;41.15;101390.84;2113166;82;21003;-78
2022/05/18 05:00:24;;;;;;;7.62;2.22;;;;;;;14.31;41.19;101391.39;2116476;82;21533;-77
2022/05/18 05:03:25;;;;;;;4.35;2.25;;;;;;;14.32;40.48;101405.06;2108758;82;22239;-78
2022/05/18 05:06:27;;;;;;;4.67;2.33;;;;;;;14.00;39.69;101410.26;2113168;82;21118;-77
2022/05/18 05:09:28;;;;;;;5.92;2.62;;;;;;;13.70;40.36;101408.38;2107394;82;21134;-77
2022/05/18 05:12:29;;;;;;;3.22;2.45;;;;;;;13.52;39.84;101416.92;2114314;82;21620;-78
2022/05/18 05:15:30;;;;;;;4.10;2.37;;;;;;;13.21;40.05;101414.62;2112300;82;21454;-76
2022/05/18 05:18:32;;;;;;;5.80;2.12;;;;;;;13.19;40.30;101412.59;2115289;82;21645;-77
2022/05/18 05:21:33;;;;;;;8.53;2.65;;;;;;;13.07;40.61;101425.31;2108632;82;20997;-76
2022/05/18 05:24:35;;;;;;;4.05;2.75;;;;;;;13.13;40.48;101421.20;2108646;82;21361;-77
2022/05/18 05:27:36;;;;;;;7.30;2.37;;;;;;;13.48;41.17;101423.03;2110554;82;21103;-77
2022/05/18 05:30:37;;;;;;;5.83;2.52;;;;;;;13.96;40.70;101419.55;2113230;82;21565;-77
2022/05/18 05:33:40;;;;;;;3.12;2.10;;;;;;;14.35;39.91;101420.77;2108971;82;21106;-78
2022/05/18 05:36:42;;;;;;;6.80;2.55;;;;;;;14.56;40.27;101420.41;2106275;82;21081;-77
2022/05/18 05:39:43;;;;;;;4.40;2.17;;;;;;;15.05;39.74;101423.70;2113354;82;21085;-77
2022/05/18 05:42:44;;;;;;;6.47;2.08;;;;;;;15.35;39.73;101416.91;2117235;82;21113;-77
2022/05/18 05:46:01;;;;;;;2.62;1.52;;;;;;;15.64;39.00;101420.91;2115211;82;21113;-77
2022/05/18 05:49:02;;;;;;;3.60;1.55;;;;;;;15.81;38.71;101421.76;2112997;82;21137;-78
2022/05/18 05:52:06;;;;;;;4.08;2.02;;;;;;;16.00;36.66;101415.21;2113123;82;21010;-77
2022/05/18 05:55:08;;;;;;;4.87;2.35;;;;;;;16.12;38.66;101428.05;2112049;82;21043;-77
2022/05/18 05:58:10;;;;;;;3.30;1.85;;;;;;;16.29;37.37;101428.84;2111889;82;21404;-79
2022/05/18 06:01:13;;;;;;;4.80;1.90;;;;;;;15.97;37.42;101428.43;2105469;82;21035;-77
2022/05/18 06:04:14;;;;;;;9.90;2.30;;;;;;;16.06;37.42;101431.41;2105127;82;21092;-78
2022/05/18 06:07:15;;;;;;;2.80;1.80;;;;;;;16.47;35.57;101427.28;2107204;82;21086;-79
2022/05/18 06:10:17;;;;;;;3.65;2.10;;;;;;;16.37;35.29;101436.02;2099567;82;21104;-76
2022/05/18 06:13:21;;;;;;;5.40;2.02;;;;;;;16.17;36.48;101434.75;2102122;82;21648;-77
2022/05/18 06:16:22;;;;;;;4.12;1.80;;;;;;;16.29;36.64;101441.40;2106766;83;21655;-76
2022/05/18 06:19:24;;;;;;;3.98;2.30;;;;;;;16.76;36.41;101443.23;2102348;82;21053;-76
2022/05/18 06:22:27;;;;;;;3.62;1.90;;;;;;;16.72;35.62;101450.77;2105415;82;21027;-77
2022/05/18 06:25:28;;;;;;;2.55;2.10;;;;;;;16.41;35.15;101449.38;2110780;82;21506;-76
2022/05/18 06:28:29;;;;;;;5.72;1.92;;;;;;;16.45;35.43;101450.73;2072141;83;21029;-77
2022/05/18 06:31:31;;;;;;;5.12;2.12;;;;;;;16.41;35.46;101448.55;2108008;82;21479;-77
2022/05/18 06:34:32;;;;;;;4.62;1.95;;;;;;;16.33;35.19;101459.64;2075479;83;21091;-76
2022/05/18 06:37:34;;;;;;;5.25;1.75;;;;;;;16.52;35.10;101453.53;2068403;83;21047;-76
2022/05/18 06:44:02;;;;;;;5.28;2.10;;;;;;;16.84;35.63;101462.47;2072439;83;21040;-76
2022/05/18 06:47:06;;;;;;;4.53;2.12;;;;;;;17.11;35.12;101467.86;2089191;83;21097;-77
2022/05/18 06:50:09;;;;;;;4.15;2.00;;;;;;;17.20;34.63;101466.31;2081322;83;21049;-77
2022/05/18 06:53:10;;;;;;;2.98;1.77;;;;;;;17.17;34.37;101472.00;2086644;83;21098;-76
2022/05/18 06:56:14;;;;;;;3.92;1.98;;;;;;;17.13;34.22;101467.19;2092982;83;21146;-76
2022/05/18 06:59:15;;;;;;;7.60;1.90;;;;;;;17.26;34.06;101467.45;2086871;83;21127;-77
2022/05/18 07:02:17;;;;;;;4.15;1.60;;;;;;;17.59;33.89;101474.73;2085581;83;21135;-77
2022/05/18 07:05:18;;;;;;;4.87;2.00;;;;;;;17.56;33.65;101474.27;2085690;83;21043;-77
2022/05/18 07:08:19;;;;;;;4.00;1.50;;;;;;;17.47;32.42;101478.34;2089604;83;21038;-77
2022/05/18 07:11:22;;;;;;;7.03;1.72;;;;;;;16.94;32.31;101473.82;2088918;83;21560;-77
2022/05/18 07:14:27;;;;;;;2.80;1.70;;;;;;;16.63;32.98;101477.78;2088488;83;21020;-77
2022/05/18 07:17:28;;;;;;;5.17;1.55;;;;;;;16.75;33.12;101482.61;2084142;83;21000;-77
2022/05/18 07:20:30;;;;;;;6.75;2.02;;;;;;;17.21;33.43;101485.91;2093387;83;21057;-77
2022/05/18 07:23:32;;;;;;;7.05;1.70;;;;;;;17.41;33.40;101484.43;2081844;83;21570;-77
2022/05/18 07:26:34;;;;;;;3.98;1.80;;;;;;;17.43;32.91;101485.61;2086682;83;21091;-77
2022/05/18 07:29:36;;;;;;;2.70;1.55;;;;;;;17.76;33.12;101496.91;2088801;83;21109;-77
2022/05/18 07:32:37;;;;;;;7.95;2.20;;;;;;;17.96;32.21;101493.75;2091144;83;21662;-77
2022/05/18 07:35:38;;;;;;;5.92;1.72;;;;;;;18.47;32.45;101492.55;2081730;83;21134;-77
2022/05/18 07:38:40;;;;;;;2.20;1.60;;;;;;;18.94;32.69;101490.00;2081408;83;21331;-77
2022/05/18 07:41:43;;;;;;;6.75;1.77;;;;;;;18.83;31.82;101492.66;2092117;83;21056;-77
2022/05/18 07:44:44;;;;;;;2.85;1.80;;;;;;;19.16;32.18;101494.91;2081346;83;21047;-77
2022/05/18 07:47:46;;;;;;;5.55;1.80;;;;;;;19.21;31.50;101491.15;2096723;83;21540;-77
2022/05/18 07:50:47;;;;;;;5.20;1.67;;;;;;;19.13;30.78;101498.81;2088291;83;21099;-77
2022/05/18 07:53:49;;;;;;;4.62;2.02;;;;;;;19.45;31.72;101489.94;2084911;84;21160;-77
2022/05/18 07:56:50;;;;;;;2.85;1.65;;;;;;;19.74;31.05;101490.84;2084340;83;21011;-76
2022/05/18 07:59:59;;;;;;;5.28;1.40;;;;;;;19.88;30.57;101487.27;2090591;83;21012;-77
2022/05/18 08:03:02;;;;;;;1.72;1.35;;;;;;;20.15;30.71;101482.38;2086904;83;21612;-77
2022/05/18 08:06:04;;;;;;;3.30;1.65;;;;;;;20.47;30.55;101489.53;2071819;83;21006;-77
2022/05/18 08:09:06;;;;;;;2.20;1.35;;;;;;;20.42;29.97;101485.77;2083325;83;21058;-77
2022/05/18 08:15:29;;;;;;;5.22;1.40;;;;;;;20.71;29.95;101490.09;2091809;83;21042;-77
2022/05/18 08:18:30;;;;;;;19.85;2.02;;;;;;;20.53;29.21;101487.42;2103207;82;21541;-77
2022/05/18 08:21:31;;;;;;;4.47;1.67;;;;;;;20.74;29.31;101478.91;2094327;83;21095;-77
2022/05/18 08:24:32;;;;;;;6.83;1.55;;;;;;;21.13;28.29;101476.86;2089195;83;21070;-77
2022/05/18 08:27:33;;;;;;;4.28;1.60;;;;;;;20.69;28.39;101484.89;2086317;83;21511;-77
2022/05/18 08:30:35;;;;;;;4.40;1.50;;;;;;;20.53;29.07;101484.72;2089136;83;21056;-77
2022/05/18 08:33:36;;;;;;;2.80;1.30;;;;;;;20.55;28.04;101480.46;2081320;83;21084;-77
2022/05/18 08:36:38;;;;;;;8.78;1.70;;;;;;;20.24;27.46;101481.70;2084373;83;22175;-77
2022/05/18 08:39:40;;;;;;;4.05;1.67;;;;;;;20.38;27.16;101484.83;2080429;83;21607;-76
2022/05/18 08:42:41;;;;;;;1.42;1.30;;;;;;;20.74;27.13;101483.77;2094889;83;21067;-77
2022/05/18 08:45:47;;;;;;;2.55;1.20;;;;;;;21.12;26.74;101486.50;2097108;83;21061;-77
2022/05/18 08:49:27;;;;;;;2.65;1.50;;;;;;;21.43;26.66;101484.13;2084284;83;21048;-76
2022/05/18 08:52:59;;;;;;;1.72;1.20;;;;;;;21.74;26.36;101484.06;2082148;83;21072;-77
2022/05/18 08:56:20;;;;;;;4.20;1.50;;;;;;;22.03;25.81;101484.14;2108110;82;21121;-76
2022/05/18 08:59:26;;;;;;;2.87;1.40;;;;;;;21.40;25.88;101477.80;2097526;82;21634;-75
2022/05/18 09:02:33;;;;;;;1.35;1.25;;;;;;;20.82;25.65;101482.25;2107832;82;21068;-77
2022/05/18 09:05:48;;;;;;;1.85;1.27;;;;;;;20.92;26.01;101479.20;2108896;82;21123;-76
2022/05/18 09:12:21;;;;;;;4.40;1.70;;;;;;;20.64;24.77;101468.99;2109216;82;21139;-77
2022/05/18 09:15:42;;;;;;;5.75;1.45;;;;;;;20.57;24.88;101471.14;2110534;82;21064;-77
2022/05/18 09:19:07;;;;;;;3.60;1.30;;;;;;;20.64;25.59;101473.89;2112075;82;21080;-77
2022/05/18 09:22:25;;;;;;;3.67;1.40;;;;;;;20.62;25.36;101471.91;2104582;82;22320;-77
2022/05/18 09:25:53;;;;;;;4.95;1.35;;;;;;;20.84;25.87;101470.45;2105347;82;21044;-77
2022/05/18 09:29:26;;;;;;;2.60;1.20;;;;;;;21.23;25.84;101476.45;2043023;85;21570;-77
2022/05/18 09:32:50;;;;;;;2.87;1.50;;;;;;;21.70;26.08;101471.98;2045352;83;22664;-77
2022/05/18 09:36:14;;;;;;;2.25;1.77;;;;;;;21.82;25.58;101478.45;2103259;82;21057;-77
2022/05/18 09:39:19;;;;;;;4.30;1.67;;;;;;;21.43;26.13;101480.61;2101724;83;21040;-77
2022/05/18 09:42:26;;;;;;;5.20;1.60;;;;;;;21.69;25.84;101479.80;2108575;82;21084;-76
2022/05/18 09:45:31;;;;;;;3.40;1.60;;;;;;;21.66;26.39;101484.26;2115519;82;21046;-76
2022/05/18 09:48:40;;;;;;;2.40;1.42;;;;;;;21.49;25.53;101481.95;2074845;83;21105;-76
2022/05/18 09:51:43;;;;;;;1.60;1.40;;;;;;;21.35;25.58;101481.59;2098747;82;21098;-76
2022/05/18 09:54:45;;;;;;;2.98;1.40;;;;;;;21.66;25.58;101476.98;2113928;82;21111;-76
2022/05/18 09:58:09;;;;;;;4.58;1.20;;;;;;;21.74;25.71;101477.30;2107357;83;21027;-76
2022/05/18 10:07:52;;;;;;;1.77;1.40;;;;;;;22.18;24.58;101481.23;2096173;83;21058;-77
2022/05/18 10:11:01;;;;;;;3.02;1.30;;;;;;;22.01;24.44;101471.88;2109589;82;21065;-76
2022/05/18 10:14:10;;;;;;;2.30;1.30;;;;;;;22.21;24.44;101468.64;2112438;82;21094;-77
2022/05/18 10:17:14;;;;;;;1.73;1.40;;;;;;;22.04;24.23;101467.40;2095329;82;21082;-81
2022/05/18 10:20:28;;;;;;;2.22;1.15;;;;;;;21.83;24.16;101461.19;2109694;82;21780;-81
2022/05/18 10:23:34;;;;;;;4.65;1.30;;;;;;;21.91;24.51;101462.86;2085083;83;21120;-81
2022/05/18 10:26:40;;;;;;;4.28;1.50;;;;;;;22.15;24.53;101454.07;2105974;81;21093;-81
2022/05/18 10:29:48;;;;;;;1.35;1.10;;;;;;;22.45;24.52;101453.63;2082734;83;21112;-80
2022/05/18 10:33:08;;;;;;;1.67;1.52;;;;;;;22.47;23.01;101452.04;2085661;83;21625;-80
2022/05/18 10:36:15;;;;;;;1.67;1.17;;;;;;;21.87;23.73;101450.79;2084546;83;21604;-81
2022/05/18 10:39:34;;;;;;;3.02;1.55;;;;;;;21.48;24.27;101449.25;2091015;83;21083;-82
2022/05/18 10:42:55;;;;;;;1.50;1.40;;;;;;;21.31;24.33;101450.63;2084212;83;21104;-81
2022/05/18 10:46:04;;;;;;;3.27;1.30;;;;;;;21.46;24.21;101444.56;2088347;83;21080;-82
2022/05/18 10:49:15;;;;;;;3.62;1.05;;;;;;;21.59;24.12;101440.20;2089952;83;21042;-82
2022/05/18 10:52:30;;;;;;;1.80;1.20;;;;;;;21.38;23.87;101450.16;2094215;83;21097;-79
2022/05/18 10:55:31;;;;;;;1.20;1.05;;;;;;;21.43;23.05;101429.30;2092347;83;21122;-83
2022/05/18 10:58:46;;;;;;;1.50;1.10;;;;;;;21.18;23.15;101438.48;2099469;83;20998;-82
2022/05/18 11:02:15;;;;;;;1.40;1.30;;;;;;;21.27;23.78;101433.19;2093604;83;21579;-83
2022/05/18 11:05:39;;;;;;;1.47;1.32;;;;;;;20.89;23.07;101428.35;2087316;83;22251;-82
2022/05/18 11:08:40;;;;;;;5.05;1.22;;;;;;;20.92;22.15;101427.09;2051394;82;21079;-83
2022/05/18 11:11:47;;;;;;;2.77;1.00;;;;;;;21.02;22.74;101427.02;2105293;81;21015;-83
2022/05/18 11:14:59;;;;;;;2.27;0.90;;;;;;;21.09;22.53;101425.70;2113556;82;21647;-81
2022/05/18 11:18:39;;;;;;;2.50;1.07;;;;;;;21.39;22.42;101426.16;2106873;82;21137;-78
2022/05/18 11:22:07;;;;;;;2.33;1.00;;;;;;;21.55;21.76;101419.54;2114930;82;21538;-80
2022/05/18 11:25:46;;;;;;;7.28;1.12;;;;;;;21.68;22.60;101418.69;2106843;83;21132;-77
2022/05/18 11:29:41;;;;;;;1.92;1.20;;;;;;;21.42;21.33;101411.42;2108725;82;21506;-81
2022/05/18 11:33:07;;;;;;;1.82;1.12;;;;;;;21.32;21.35;101409.12;2105729;82;21114;-81
2022/05/18 11:36:31;;;;;;;1.20;1.10;;;;;;;20.91;21.39;101400.63;2111455;82;21087;-81
2022/05/18 11:40:05;;;;;;;1.87;1.00;;;;;;;21.30;21.89;101396.86;2075839;83;21059;-81
2022/05/18 11:43:37;;;;;;;1.20;1.10;;;;;;;21.61;21.75;101393.57;2093167;83;21035;-81
2022/05/18 11:47:15;;;;;;;2.20;1.00;;;;;;;21.76;22.20;101389.29;2101167;82;21088;-80
2022/05/18 11:50:37;;;;;;;2.37;1.17;;;;;;;21.87;22.14;101389.47;2102791;82;21094;-77
2022/05/18 11:54:07;;;;;;;2.87;1.10;;;;;;;21.75;21.15;101384.94;2097163;82;21026;-80
2022/05/18 11:57:40;;;;;;;1.35;1.02;;;;;;;21.30;21.05;101386.89;2090580;83;21098;-81
2022/05/18 12:01:06;;;;;;;1.42;1.20;;;;;;;21.02;21.95;101379.80;2096177;82;21046;-81
2022/05/18 12:04:38;;;;;;;2.17;1.10;;;;;;;20.60;21.18;101373.67;2102464;83;21069;-81
2022/05/18 12:08:24;;;;;;;3.15;2.67;;;;;;;20.89;21.27;101374.89;2106174;82;21091;-79
2022/05/18 12:11:53;;;;;;;2.30;1.05;;;;;;;20.95;20.80;101372.22;2098035;82;21071;-77
2022/05/18 12:15:14;;;;;;;2.30;1.20;;;;;;;20.79;20.96;101372.08;2097051;83;21066;-81
2022/05/18 12:18:30;;;;;;;1.67;1.07;;;;;;;20.82;22.07;101370.31;2102676;82;21088;-81
2022/05/18 12:21:44;;;;;;;1.98;1.00;;;;;;;20.64;20.58;101370.56;2101022;82;21496;-81
2022/05/18 12:24:49;;;;;;;3.98;0.95;;;;;;;20.44;20.50;101365.08;2098818;82;22450;-82
2022/05/18 12:27:55;;;;;;;2.35;1.00;;;;;;;20.60;20.76;101364.23;2081684;82;21045;-81
2022/05/18 12:30:57;;;;;;;1.87;1.10;;;;;;;20.72;21.24;101363.64;2102321;82;21062;-81
2022/05/18 12:34:04;;;;;;;2.77;1.02;;;;;;;20.79;21.57;101365.86;2071888;82;21084;-80
2022/05/18 12:37:17;;;;;;;4.25;0.95;;;;;;;20.70;20.90;101361.17;2096705;83;21570;-81
2022/05/18 12:40:32;;;;;;;2.50;1.30;;;;;;;21.04;21.12;101354.80;2110702;82;21106;-81
2022/05/18 12:43:48;;;;;;;1.30;1.10;;;;;;;21.23;20.51;101353.65;2097513;82;21073;-81
2022/05/18 12:47:02;;;;;;;1.00;0.93;;;;;;;20.93;19.62;101351.36;2101383;82;21051;-81
2022/05/18 12:50:09;;;;;;;4.17;1.05;;;;;;;20.72;20.13;101360.95;2099504;82;21561;-80
2022/05/18 12:53:24;;;;;;;1.75;1.00;;;;;;;20.75;20.11;101353.80;2048135;83;21126;-80
2022/05/18 12:56:42;;;;;;;1.95;1.10;;;;;;;20.84;20.29;101349.90;2078644;83;21017;-81
2022/05/18 13:00:18;;;;;;;2.58;1.20;;;;;;;20.72;20.02;101346.12;2074349;83;21721;-81
2022/05/18 13:03:28;;;;;;;5.62;1.05;;;;;;;20.88;19.97;101345.74;2078885;83;22324;-78
2022/05/18 13:06:48;;;;;;;3.92;1.22;;;;;;;21.04;20.46;101338.61;2064474;83;21094;-80
2022/05/18 13:09:55;;;;;;;2.90;1.10;;;;;;;21.33;20.11;101348.68;2085579;83;21173;-81
2022/05/18 13:13:05;;;;;;;3.92;1.25;;;;;;;21.13;20.08;101342.45;2078495;83;21089;-80
2022/05/18 13:16:06;;;;;;;3.37;1.10;;;;;;;20.96;20.52;101342.02;2061690;83;21052;-79
2022/05/18 13:19:24;;;;;;;3.37;1.10;;;;;;;20.56;20.42;101306.89;2095708;82;21053;-80
2022/05/18 13:22:40;;;;;;;1.25;1.15;;;;;;;20.66;20.07;101329.41;2104476;82;21006;-81
2022/05/18 13:25:46;;;;;;;2.58;1.30;;;;;;;20.64;20.57;101331.47;2099559;82;21184;-80
2022/05/18 13:28:50;;;;;;;5.33;1.20;;;;;;;20.40;20.35;101336.88;2097654;83;21059;-80
2022/05/18 13:31:56;;;;;;;2.50;1.30;;;;;;;20.34;21.37;101333.13;2092824;83;21078;-81
2022/05/18 13:35:09;;;;;;;1.05;1.00;;;;;;;20.27;20.95;101328.21;2099223;83;21754;-81
2022/05/18 13:38:25;;;;;;;4.53;1.12;;;;;;;20.19;20.86;101327.89;2091701;83;21510;-80
2022/05/18 13:41:31;;;;;;;2.80;1.62;;;;;;;20.07;20.90;101320.88;2090849;82;21080;-79
2022/05/18 13:44:33;;;;;;;3.55;1.10;;;;;;;20.21;21.37;101319.06;2092470;83;21093;-80
2022/05/18 13:47:49;;;;;;;2.67;1.15;;;;;;;20.25;21.54;101320.87;2091139;83;21016;-80
2022/05/18 13:50:56;;;;;;;1.65;1.32;;;;;;;20.28;21.46;101313.20;2099941;82;21477;-80
2022/05/18 13:54:01;;;;;;;3.12;1.10;;;;;;;20.35;22.18;101320.78;2105507;82;21131;-80
2022/05/18 13:57:06;;;;;;;1.65;0.90;;;;;;;20.22;21.62;101316.70;2106387;82;20991;-79
2022/05/18 14:00:13;;;;;;;1.98;0.80;;;;;;;20.19;22.48;101313.07;2102674;83;21125;-67
2022/05/18 14:03:18;;;;;;;2.05;1.55;;;;;;;20.13;22.50;101302.58;2067659;83;21061;-76
2022/05/18 14:06:23;;;;;;;2.25;1.15;;;;;;;20.02;22.68;101298.26;2081591;83;21070;-81
2022/05/18 14:09:24;;;;;;;1.27;0.95;;;;;;;20.08;22.54;101301.00;2094268;83;21640;-79
2022/05/18 14:12:26;;;;;;;6.08;1.35;;;;;;;20.17;23.19;101289.53;2086371;83;21152;-80
2022/05/18 14:15:38;;;;;;;2.15;1.00;;;;;;;20.24;22.34;101297.63;2084695;83;21011;-80
2022/05/18 14:18:53;;;;;;;1.90;1.07;;;;;;;20.21;22.47;101295.34;2084917;83;21054;-79
2022/05/18 14:21:53;;;;;;;1.98;1.22;;;;;;;20.21;22.59;101289.95;2088010;83;21088;-78
2022/05/18 14:25:11;;;;;;;6.45;1.52;;;;;;;20.50;22.69;101288.81;2105093;82;21167;-79
2022/05/18 14:28:17;;;;;;;2.17;1.42;;;;;;;20.58;22.97;101286.78;2056535;83;21063;-80
2022/05/18 14:31:23;;;;;;;3.80;1.55;;;;;;;20.60;22.78;101289.26;2079211;83;21106;-79
2022/05/18 14:34:39;;;;;;;5.62;1.60;;;;;;;20.60;22.82;101289.26;2072665;83;21030;-74
2022/05/18 14:37:46;;;;;;;6.28;1.85;;;;;;;20.56;22.34;101285.33;2071293;83;21158;-79
2022/05/18 14:40:49;;;;;;;4.62;1.40;;;;;;;20.32;22.51;101286.67;2068732;83;21081;-76
2022/05/18 14:44:00;;;;;;;2.55;1.22;;;;;;;20.29;22.83;101290.59;2085542;83;21124;-79
2022/05/18 14:47:09;;;;;;;3.83;1.27;;;;;;;20.25;22.42;101290.70;2060059;83;21060;-76
2022/05/18 14:50:22;;;;;;;2.52;1.32;;;;;;;20.15;22.30;101284.33;2093441;83;21113;-77
2022/05/18 14:53:28;;;;;;;3.92;1.55;;;;;;;20.09;22.48;101279.75;2089923;82;21069;-76
2022/05/18 14:56:35;;;;;;;1.40;1.30;;;;;;;20.10;22.96;101286.82;2098993;82;21043;-76
2022/05/18 14:59:48;;;;;;;5.53;1.70;;;;;;;20.10;23.00;101273.84;2087896;82;21133;-76
2022/05/18 15:02:52;;;;;;;2.87;1.30;;;;;;;20.15;22.88;101274.89;2096257;82;21041;-76